ROMMA est une association bénévole à but non lucratif. Votre soutien est indispensable : ADHERER à ROMMA ou FAIRE un DON

Chindrieux - (73, Savoie)

Chautagne (260 m)   Longitude: 05°50' E   Latitude: 45°49' N Station partenaire n°74
 

Détail journalier du     <<     >>

Température Precipitation Humidité Pression Vent Dir Rafale Dir. rafale Ensol.
Heure (°C) (mm) (%) (hPa) (km/h) (km/h) (min)
01:00 12.906310101E8E0
02:00 12.706710091E5E0
03:00 12.207310092N10SSE0
04:00 12.507410082SSE8NNO0
05:00 11.507610071NO8E0
06:00 11.607410061ESE6ESE0
07:00 11.607310051NE8E0
08:00 11.9071100506NE0
09:00 12.607210053SSE10SSE0
10:00 13.807010043S10S0
11:00 15.906310034SSE13SSE0
12:00 18.305110025SSE15SE0
13:00 21.704010017SSE21SSE40
14:00 23.4033100012NNO24NNO60
15:00 24.403199912NNO24NNO60
16:00 25.203099812NNO23NNO60
17:00 25.30299987NNO16NO20
18:00 23.90369972S10NNE0
19:00 23.403399708ENE0
20:00 21.404099705ENE0
21:00 19.20439962ENE11ESE0
22:00 21.60299978ESE26ESE0
23:00 20.90299976ESE23ESE0
minuit 20.602999716SE37SSE0

Graphique du 22-04-2019

 

Serveur OMMA